Buoy 47557

sailwx.info

Track history (hours):
 
Tides and Currents Weather Stations Pressure Air Temp Water Temp Dewpoint Dewpoint Depression Visibility Wind Speed Wind Dir Waves Ship Positions

Drifting buoy 47557

Last reported at 2017-May-30 10:00 UTC. Time now 2017-May-30 10:50 UTC.
Position N 51°22' W 019°02'.

Barometer 1018.1 mb
Water temperature 13.4 ° C

Date/timePositionNaut miles runAvg speedWind from/ knotsBaromVisibWave heightAir tempDewpointWater temp
2017-May-30 10:00N 51°22' W 019°02'1 0.7 1018.1 13.4
2017-May-30 09:00N 51°22' W 019°01'1 0.7 1017.7 13.4
2017-May-30 08:00N 51°23' W 019°00'1 0.7 1017.9 13.4
2017-May-30 07:00N 51°23' W 018°59'0 0.4 1017.4 13.4
2017-May-30 06:00N 51°23' W 018°58'1 0.7 1017.1 13.4
2017-May-30 05:00N 51°23' W 018°57'1 0.7 1016.7 13.4
2017-May-30 04:00N 51°23' W 018°56'1 0.7 1016.4 13.4
2017-May-30 03:00N 51°23' W 018°55'1 0.7 1016.2 13.4
2017-May-30 02:00N 51°23' W 018°53'1 1.3 1016.0 13.5
2017-May-30 01:00N 51°23' W 018°52'1 0.7 1015.3 13.5
2017-May-30 00:00N 51°23' W 018°50'1 1.1 1014.8 13.5
2017-May-29 23:00N 51°23' W 018°49'1 1.3 1014.5 13.5
2017-May-29 22:00N 51°24' W 018°47'1 0.7 1013.8 13.5
2017-May-29 21:00N 51°24' W 018°46'1 1.1 1012.7 13.6
2017-May-29 20:00N 51°24' W 018°44'1 0.7 1012.0 13.6
2017-May-29 19:00N 51°24' W 018°43'1 1.1 1010.9 13.6
2017-May-29 18:00N 51°24' W 018°41'1 0.7 1010.0 13.7
2017-May-29 17:00N 51°24' W 018°40'1 0.7 1009.0 13.8
2017-May-29 16:00N 51°24' W 018°38'1 0.7 1008.0 13.8
2017-May-29 15:00N 51°24' W 018°37'1 0.7 1008.0 13.8
2017-May-29 14:00N 51°24' W 018°36'1 0.7 1008.2 13.8
2017-May-29 12:00N 51°24' W 018°34'4 0.6 1008.4 13.8
2017-May-29 06:00N 51°23' W 018°28'2 0.7 1009.1 13.8
2017-May-29 03:00N 51°22' W 018°25'1 0.6 1010.7 13.8
2017-May-29 01:00N 51°21' W 018°23'0 0.4 1012.2 13.9
2017-May-29 00:00N 51°21' W 018°23'2 0.5 1012.7 13.9
2017-May-28 21:00N 51°20' W 018°20'2 0.8 1013.6 14.0
2017-May-28 18:00N 51°19' W 018°18'1 0.5 1014.2 14.1
2017-May-28 16:00N 51°18' W 018°17'1 0.6 1015.4 14.1
2017-May-28 15:00N 51°17' W 018°17'1 0.5 1015.6 14.0
2017-May-28 12:00N 51°16' W 018°16'1 0.5 1016.1 13.7
2017-May-28 09:00N 51°15' W 018°14'1 0.7 1016.3 13.8
2017-May-28 08:00N 51°14' W 018°14'1 0.6 1016.1 13.8
2017-May-28 07:00N 51°14' W 018°14'1 0.6 1015.8 13.8
2017-May-28 06:00N 51°13' W 018°14'1 0.6 1015.7 13.8
2017-May-28 05:00N 51°13' W 018°14'1 0.6 1015.6 13.8
2017-May-28 04:00N 51°12' W 018°14'1 0.6 1015.6 13.8
2017-May-28 03:00N 51°11' W 018°14'1 0.6 1015.8 13.8
2017-May-28 02:00N 51°11' W 018°14'1 1.2 1016.0 13.8
2017-May-28 01:00N 51°10' W 018°14'0 0.4 1016.1 13.9
2017-May-28 00:00N 51°10' W 018°14'1 0.6 1016.3 13.9
2017-May-27 23:00N 51°09' W 018°14'1 0.6 1016.3 13.9
2017-May-27 22:00N 51°08' W 018°14'1 0.6 1016.2 13.9
2017-May-27 21:00N 51°08' W 018°14'1 1.2 1015.8 14.0
2017-May-27 20:00N 51°07' W 018°14'1 0.7 1015.5 14.0
2017-May-27 19:00N 51°06' W 018°15'1 0.6 1015.2 14.0
2017-May-27 18:00N 51°05' W 018°15'1 1.3 1014.8 14.0
2017-May-27 17:00N 51°04' W 018°16'1 0.7 1014.7 14.0
2017-May-27 16:00N 51°04' W 018°16'1 1.3 1014.6 14.0
2017-May-27 15:00N 51°02' W 018°17'1 0.6 1014.5 14.0
2017-May-27 14:00N 51°02' W 018°17'1 0.7 1014.6 13.9
2017-May-27 13:00N 51°01' W 018°17'1 1.2 1014.6 13.9
2017-May-27 12:00N 51°00' W 018°17'1 0.7 1014.5 13.9
2017-May-27 11:00N 50°59' W 018°18'1 1.3 1014.5 13.8
2017-May-27 10:00N 50°58' W 018°19'1 0.6 1014.5 13.7
2017-May-27 09:00N 50°58' W 018°19'1 1.3 1014.1 13.6
2017-May-27 08:00N 50°56' W 018°19'1 0.6 1013.7 13.4
2017-May-27 07:00N 50°56' W 018°19'1 1.3 1013.4 13.6
2017-May-27 06:00N 50°55' W 018°20'1 0.7 1013.1 13.5
2017-May-27 05:00N 50°54' W 018°20'1 1.3 1012.9 13.5
2017-May-27 04:00N 50°53' W 018°21'1 1.3 1013.0 13.6
2017-May-27 03:00N 50°52' W 018°22'1 1.2 1013.3 13.6
2017-May-27 02:00N 50°50' W 018°22'1 0.7 1013.6 13.7
2017-May-27 01:00N 50°50' W 018°22'1 1.3 1013.8 13.7
2017-May-27 00:00N 50°49' W 018°23'1 0.6 1013.9 13.8
2017-May-26 23:00N 50°48' W 018°23'1 1.3 1013.7 13.8
2017-May-26 22:00N 50°47' W 018°23'1 0.6 1013.7 13.8
2017-May-26 21:00N 50°46' W 018°23'1 0.7 1013.2 13.8
2017-May-26 20:00N 50°46' W 018°24'1 1.3 1012.8 13.9
2017-May-26 19:00N 50°44' W 018°25'1 0.6 1012.5 13.9
2017-May-26 18:00N 50°44' W 018°25'1 1.3 1012.4 13.9
2017-May-26 17:00N 50°43' W 018°25'1 1.3 1012.1 13.9
2017-May-26 16:00N 50°41' W 018°26'1 1.3 1012.2 13.9
2017-May-26 15:00N 50°40' W 018°26'2 0.8 1012.5 13.9
2017-May-26 12:00N 50°38' W 018°27'1 1.2 1012.4 13.6
2017-May-26 11:00N 50°37' W 018°27'1 0.6 1012.4 13.4
2017-May-26 09:00N 50°35' W 018°28'1 0.6 1011.8 13.2
2017-May-26 08:00N 50°35' W 018°28'1 0.7 1011.5 13.1
2017-May-26 07:00N 50°34' W 018°28'1 1.2 1011.0 13.1
2017-May-26 06:00N 50°33' W 018°28'1 0.7 1010.7 13.1
2017-May-26 05:00N 50°32' W 018°29'1 0.6 1010.7 13.1
2017-May-26 04:00N 50°32' W 018°29'1 1.3 1010.5 13.1
2017-May-26 03:00N 50°31' W 018°29'1 1.2 1010.6 13.1
2017-May-26 02:00N 50°29' W 018°29'1 0.6 1011.1 13.1
2017-May-26 01:00N 50°29' W 018°29'1 0.6 1011.3 13.2
2017-May-26 00:00N 50°28' W 018°29'1 0.6 1011.4 13.2
2017-May-25 23:00N 50°28' W 018°29'1 0.6 1011.6 13.2
2017-May-25 22:00N 50°27' W 018°29'1 0.6 1011.8 13.2
2017-May-25 21:00N 50°26' W 018°29'1 0.6 1011.4 13.2
2017-May-25 20:00N 50°26' W 018°29'1 0.6 1011.4 13.3
2017-May-25 19:00N 50°25' W 018°29'1 0.6 1011.5 13.4
2017-May-25 18:00N 50°25' W 018°29'2 0.9 1011.7 13.4
2017-May-25 16:00N 50°23' W 018°29'1 0.7 1012.0 13.4
2017-May-25 15:00N 50°22' W 018°30'1 0.6 1012.1 13.3
2017-May-25 14:00N 50°22' W 018°30'2 0.9 1012.1 13.3
2017-May-25 12:00N 50°20' W 018°29'2 0.6 1012.3 13.0
2017-May-25 09:00N 50°18' W 018°29'2 0.6 1012.8 12.8
2017-May-25 06:00N 50°16' W 018°29'1 0.6 1011.7 12.8
2017-May-25 05:00N 50°16' W 018°29'1 0.6 1011.6 12.8
2017-May-25 03:00N 50°14' W 018°28'1 1.2 1011.7 12.8
2017-May-25 02:00N 50°13' W 018°28'1 0.6 1012.0 12.8
2017-May-25 00:00N 50°12' W 018°28'1 0.4 1012.9 12.8
2017-May-24 21:00N 50°11' W 018°29'2 0.6 1013.9 12.8
2017-May-24 18:00N 50°09' W 018°29'2 0.8 1014.6 12.8
2017-May-24 15:00N 50°07' W 018°28'1 0.3 1016.2 12.7
2017-May-24 13:00N 50°06' W 018°28'1 0.7 1016.3 12.7
2017-May-24 12:00N 50°05' W 018°29'1 0.4 1016.7 12.7
2017-May-24 10:00N 50°05' W 018°29'1 0.6 1017.8 12.6
2017-May-24 09:00N 50°04' W 018°29'1 0.4 1017.6 12.6
2017-May-24 06:00N 50°03' W 018°30'0 0.0 1017.5 12.6
2017-May-24 05:00N 50°03' W 018°30'1 0.6 1017.2 12.6
2017-May-24 04:00N 50°02' W 018°30'1 0.7 1017.2 12.6
2017-May-24 03:00N 50°02' W 018°31'1 0.2 1017.2 12.6
2017-May-24 00:00N 50°01' W 018°31'0 0.0 1018.1 12.6
2017-May-23 23:00N 50°01' W 018°31'0 0.4 1018.5 12.6
2017-May-23 22:00N 50°01' W 018°32'0 0.4 1018.4 12.6
2017-May-23 21:00N 50°01' W 018°32'1 0.5 1018.1 12.6
2017-May-23 18:00N 50°00' W 018°34'0 0.0 1018.1 12.6
2017-May-23 17:00N 50°00' W 018°34'1 0.6 1018.1 12.6
2017-May-23 16:00N 49°59' W 018°34'0 0.0 1018.1 12.6
2017-May-23 15:00N 49°59' W 018°34'0 0.0 1018.3 12.6
2017-May-23 14:00N 49°59' W 018°34'0 0.4 1018.2 12.6
2017-May-23 13:00N 49°59' W 018°34'0 0.0 1018.2 12.5
2017-May-23 12:00N 49°59' W 018°34'1 0.7 1018.1 12.5
2017-May-23 11:00N 50°00' W 018°35'0 0.4 1018.3 12.5
2017-May-23 10:00N 50°00' W 018°35'0 0.4 1018.0 12.5
2017-May-23 09:00N 50°00' W 018°36'0 0.4 1017.6 12.5
2017-May-23 08:00N 50°00' W 018°37'0 0.4 1017.4 12.4
2017-May-23 07:00N 50°00' W 018°37'1 0.7 1016.8 12.4
2017-May-23 06:00N 49°59' W 018°38'0 0.0 1016.3 12.4
2017-May-23 05:00N 49°59' W 018°38'0 0.4 1016.0 12.4
2017-May-23 04:00N 49°59' W 018°38'0 0.0 1015.7 12.4
2017-May-23 03:00N 49°59' W 018°38'1 0.6 1015.5 12.4
2017-May-23 02:00N 49°59' W 018°38'0 0.0 1015.5 12.4
2017-May-23 01:00N 49°59' W 018°38'1 0.6 1015.4 12.4
2017-May-23 00:00N 49°59' W 018°38'0 0.0 1015.0 12.4
2017-May-22 23:00N 49°59' W 018°38'0 0.4 1014.8 12.4
2017-May-22 22:00N 49°59' W 018°39'1 0.7 1014.5 12.4
2017-May-22 21:00N 50°00' W 018°40'0 0.4 1013.8 12.4
2017-May-22 20:00N 50°00' W 018°40'0 0.4 1013.2 12.4
2017-May-22 19:00N 50°00' W 018°41'0 0.4 1012.4 12.4
2017-May-22 18:00N 50°00' W 018°41'0 0.1 1011.7 12.4
2017-May-22 15:00N 50°00' W 018°42'0 0.1 1009.9 12.4
2017-May-22 12:00N 50°00' W 018°43'0 0.0 1008.1 12.4
2017-May-22 10:00N 50°00' W 018°43'0 0.4 1008.0 12.3
2017-May-22 09:00N 50°00' W 018°43'1 0.2 1007.7 12.3
2017-May-22 06:00N 50°01' W 018°44'1 0.3 1006.9 12.3
2017-May-22 03:00N 50°01' W 018°45'0 0.0 1006.1 12.3
2017-May-22 02:00N 50°01' W 018°45'0 0.4 1006.2 12.3
2017-May-22 01:00N 50°01' W 018°46'0 0.0 1006.4 12.3
2017-May-22 00:00N 50°01' W 018°46'0 0.4 1006.2 12.3
2017-May-21 23:00N 50°01' W 018°46'0 0.2 1005.9 12.3
2017-May-21 21:00N 50°01' W 018°47'0 0.0 1004.4 12.3
2017-May-21 20:00N 50°01' W 018°47'0 0.0 1003.6 12.3
2017-May-21 19:00N 50°01' W 018°47'1 0.7 1002.7 12.3
2017-May-21 18:00N 50°01' W 018°47'0 0.0 1001.9 12.3
2017-May-21 17:00N 50°01' W 018°47'1 0.7 1001.1 12.3
2017-May-21 16:00N 50°02' W 018°48'0 0.4 999.9 12.3
2017-May-21 15:00N 50°02' W 018°49'0 0.0 999.2 12.3
2017-May-21 14:00N 50°02' W 018°49'0 0.4 998.9 12.3
2017-May-21 13:00N 50°02' W 018°49'1 1.0 998.8 12.3
2017-May-21 12:00N 50°02' W 018°50'1 1.2 998.8 12.3
2017-May-21 11:00N 50°02' W 018°52'0 0.0 998.8 12.3
2017-May-21 10:00N 50°02' W 018°52'0 0.4 998.7 12.2
2017-May-21 09:00N 50°02' W 018°53'0 0.4 998.8 12.2
2017-May-21 08:00N 50°02' W 018°53'1 0.7 998.5 12.2
2017-May-21 07:00N 50°02' W 018°54'0 0.0 998.1 12.2
2017-May-21 06:00N 50°02' W 018°54'0 0.4 997.2 12.2
2017-May-21 05:00N 50°02' W 018°55'0 0.0 998.2 12.2
2017-May-21 04:00N 50°02' W 018°55'0 0.4 999.8 12.1
2017-May-21 03:00N 50°02' W 018°55'0 0.4 1001.4 12.1
2017-May-21 02:00N 50°02' W 018°56'1 0.8 1003.0 12.2
2017-May-21 01:00N 50°02' W 018°57'0 0.4 1004.4 12.2
2017-May-21 00:00N 50°02' W 018°58'0 0.4 1005.8 12.3
2017-May-20 23:00N 50°02' W 018°58'0 0.0 1007.0 12.3
2017-May-20 22:00N 50°02' W 018°58'1 0.7 1008.0 12.3
2017-May-20 21:00N 50°01' W 018°59'0 0.0 1008.6 12.3
2017-May-20 20:00N 50°01' W 018°59'1 0.4 1009.3 12.3
2017-May-20 18:00N 50°02' W 018°59'1 0.7 1011.0 12.3
2017-May-20 17:00N 50°02' W 019°00'0 0.4 1011.8 12.4
2017-May-20 16:00N 50°02' W 019°01'0 0.4 1012.5 12.4
2017-May-20 15:00N 50°02' W 019°01'0 0.4 1013.2 12.4
2017-May-20 14:00N 50°02' W 019°02'0 0.4 1013.9 12.3
2017-May-20 13:00N 50°02' W 019°02'0 0.0 1014.2 12.4
2017-May-20 12:00N 50°02' W 019°02'0 0.4 1014.6 12.3
2017-May-20 11:00N 50°02' W 019°03'1 0.6 1015.0 12.2
2017-May-20 10:00N 50°02' W 019°03'   1015.1 12.2
Track history (hours):
 
Tides and Currents Weather Stations Pressure Air Temp Water Temp Dewpoint Dewpoint Depression Visibility Wind Speed Wind Dir Waves Ship Positions

Drifting buoy 47557

Last reported at 2017-May-30 10:00 UTC. Time now 2017-May-30 10:50 UTC.
Position N 51°22' W 019°02'.

Barometer 1018.1 mb
Water temperature 13.4 ° C

Date/timePositionNaut miles runAvg speedWind from/ knotsBaromVisibWave heightAir tempDewpointWater temp
2017-May-30 10:00N 51°22' W 019°02'1 0.7 1018.1 13.4
2017-May-30 09:00N 51°22' W 019°01'1 0.7 1017.7 13.4
2017-May-30 08:00N 51°23' W 019°00'1 0.7 1017.9 13.4
2017-May-30 07:00N 51°23' W 018°59'0 0.4 1017.4 13.4
2017-May-30 06:00N 51°23' W 018°58'1 0.7 1017.1 13.4
2017-May-30 05:00N 51°23' W 018°57'1 0.7 1016.7 13.4
2017-May-30 04:00N 51°23' W 018°56'1 0.7 1016.4 13.4
2017-May-30 03:00N 51°23' W 018°55'1 0.7 1016.2 13.4
2017-May-30 02:00N 51°23' W 018°53'1 1.3 1016.0 13.5
2017-May-30 01:00N 51°23' W 018°52'1 0.7 1015.3 13.5
2017-May-30 00:00N 51°23' W 018°50'1 1.1 1014.8 13.5
2017-May-29 23:00N 51°23' W 018°49'1 1.3 1014.5 13.5
2017-May-29 22:00N 51°24' W 018°47'1 0.7 1013.8 13.5
2017-May-29 21:00N 51°24' W 018°46'1 1.1 1012.7 13.6
2017-May-29 20:00N 51°24' W 018°44'1 0.7 1012.0 13.6
2017-May-29 19:00N 51°24' W 018°43'1 1.1 1010.9 13.6
2017-May-29 18:00N 51°24' W 018°41'1 0.7 1010.0 13.7
2017-May-29 17:00N 51°24' W 018°40'1 0.7 1009.0 13.8
2017-May-29 16:00N 51°24' W 018°38'1 0.7 1008.0 13.8
2017-May-29 15:00N 51°24' W 018°37'1 0.7 1008.0 13.8
2017-May-29 14:00N 51°24' W 018°36'1 0.7 1008.2 13.8
2017-May-29 12:00N 51°24' W 018°34'4 0.6 1008.4 13.8
2017-May-29 06:00N 51°23' W 018°28'2 0.7 1009.1 13.8
2017-May-29 03:00N 51°22' W 018°25'1 0.6 1010.7 13.8
2017-May-29 01:00N 51°21' W 018°23'0 0.4 1012.2 13.9
2017-May-29 00:00N 51°21' W 018°23'2 0.5 1012.7 13.9
2017-May-28 21:00N 51°20' W 018°20'2 0.8 1013.6 14.0
2017-May-28 18:00N 51°19' W 018°18'1 0.5 1014.2 14.1
2017-May-28 16:00N 51°18' W 018°17'1 0.6 1015.4 14.1
2017-May-28 15:00N 51°17' W 018°17'1 0.5 1015.6 14.0
2017-May-28 12:00N 51°16' W 018°16'1 0.5 1016.1 13.7
2017-May-28 09:00N 51°15' W 018°14'1 0.7 1016.3 13.8
2017-May-28 08:00N 51°14' W 018°14'1 0.6 1016.1 13.8
2017-May-28 07:00N 51°14' W 018°14'1 0.6 1015.8 13.8
2017-May-28 06:00N 51°13' W 018°14'1 0.6 1015.7 13.8
2017-May-28 05:00N 51°13' W 018°14'1 0.6 1015.6 13.8
2017-May-28 04:00N 51°12' W 018°14'1 0.6 1015.6 13.8
2017-May-28 03:00N 51°11' W 018°14'1 0.6 1015.8 13.8
2017-May-28 02:00N 51°11' W 018°14'1 1.2 1016.0 13.8
2017-May-28 01:00N 51°10' W 018°14'0 0.4 1016.1 13.9
2017-May-28 00:00N 51°10' W 018°14'1 0.6 1016.3 13.9
2017-May-27 23:00N 51°09' W 018°14'1 0.6 1016.3 13.9
2017-May-27 22:00N 51°08' W 018°14'1 0.6 1016.2 13.9
2017-May-27 21:00N 51°08' W 018°14'1 1.2 1015.8 14.0
2017-May-27 20:00N 51°07' W 018°14'1 0.7 1015.5 14.0
2017-May-27 19:00N 51°06' W 018°15'1 0.6 1015.2 14.0
2017-May-27 18:00N 51°05' W 018°15'1 1.3 1014.8 14.0
2017-May-27 17:00N 51°04' W 018°16'1 0.7 1014.7 14.0
2017-May-27 16:00N 51°04' W 018°16'1 1.3 1014.6 14.0
2017-May-27 15:00N 51°02' W 018°17'1 0.6 1014.5 14.0
2017-May-27 14:00N 51°02' W 018°17'1 0.7 1014.6 13.9
2017-May-27 13:00N 51°01' W 018°17'1 1.2 1014.6 13.9
2017-May-27 12:00N 51°00' W 018°17'1 0.7 1014.5 13.9
2017-May-27 11:00N 50°59' W 018°18'1 1.3 1014.5 13.8
2017-May-27 10:00N 50°58' W 018°19'1 0.6 1014.5 13.7
2017-May-27 09:00N 50°58' W 018°19'1 1.3 1014.1 13.6
2017-May-27 08:00N 50°56' W 018°19'1 0.6 1013.7 13.4
2017-May-27 07:00N 50°56' W 018°19'1 1.3 1013.4 13.6
2017-May-27 06:00N 50°55' W 018°20'1 0.7 1013.1 13.5
2017-May-27 05:00N 50°54' W 018°20'1 1.3 1012.9 13.5
2017-May-27 04:00N 50°53' W 018°21'1 1.3 1013.0 13.6
2017-May-27 03:00N 50°52' W 018°22'1 1.2 1013.3 13.6
2017-May-27 02:00N 50°50' W 018°22'1 0.7 1013.6 13.7
2017-May-27 01:00N 50°50' W 018°22'1 1.3 1013.8 13.7
2017-May-27 00:00N 50°49' W 018°23'1 0.6 1013.9 13.8
2017-May-26 23:00N 50°48' W 018°23'1 1.3 1013.7 13.8
2017-May-26 22:00N 50°47' W 018°23'1 0.6 1013.7 13.8
2017-May-26 21:00N 50°46' W 018°23'1 0.7 1013.2 13.8
2017-May-26 20:00N 50°46' W 018°24'1 1.3 1012.8 13.9
2017-May-26 19:00N 50°44' W 018°25'1 0.6 1012.5 13.9
2017-May-26 18:00N 50°44' W 018°25'1 1.3 1012.4 13.9
2017-May-26 17:00N 50°43' W 018°25'1 1.3 1012.1 13.9
2017-May-26 16:00N 50°41' W 018°26'1 1.3 1012.2 13.9
2017-May-26 15:00N 50°40' W 018°26'2 0.8 1012.5 13.9
2017-May-26 12:00N 50°38' W 018°27'1 1.2 1012.4 13.6
2017-May-26 11:00N 50°37' W 018°27'1 0.6 1012.4 13.4
2017-May-26 09:00N 50°35' W 018°28'1 0.6 1011.8 13.2
2017-May-26 08:00N 50°35' W 018°28'1 0.7 1011.5 13.1
2017-May-26 07:00N 50°34' W 018°28'1 1.2 1011.0 13.1
2017-May-26 06:00N 50°33' W 018°28'1 0.7 1010.7 13.1
2017-May-26 05:00N 50°32' W 018°29'1 0.6 1010.7 13.1
2017-May-26 04:00N 50°32' W 018°29'1 1.3 1010.5 13.1
2017-May-26 03:00N 50°31' W 018°29'1 1.2 1010.6 13.1
2017-May-26 02:00N 50°29' W 018°29'1 0.6 1011.1 13.1
2017-May-26 01:00N 50°29' W 018°29'1 0.6 1011.3 13.2
2017-May-26 00:00N 50°28' W 018°29'1 0.6 1011.4 13.2
2017-May-25 23:00N 50°28' W 018°29'1 0.6 1011.6 13.2
2017-May-25 22:00N 50°27' W 018°29'1 0.6 1011.8 13.2
2017-May-25 21:00N 50°26' W 018°29'1 0.6 1011.4 13.2
2017-May-25 20:00N 50°26' W 018°29'1 0.6 1011.4 13.3
2017-May-25 19:00N 50°25' W 018°29'1 0.6 1011.5 13.4
2017-May-25 18:00N 50°25' W 018°29'2 0.9 1011.7 13.4
2017-May-25 16:00N 50°23' W 018°29'1 0.7 1012.0 13.4
2017-May-25 15:00N 50°22' W 018°30'1 0.6 1012.1 13.3
2017-May-25 14:00N 50°22' W 018°30'2 0.9 1012.1 13.3
2017-May-25 12:00N 50°20' W 018°29'2 0.6 1012.3 13.0
2017-May-25 09:00N 50°18' W 018°29'2 0.6 1012.8 12.8
2017-May-25 06:00N 50°16' W 018°29'1 0.6 1011.7 12.8
2017-May-25 05:00N 50°16' W 018°29'1 0.6 1011.6 12.8
2017-May-25 03:00N 50°14' W 018°28'1 1.2 1011.7 12.8
2017-May-25 02:00N 50°13' W 018°28'1 0.6 1012.0 12.8
2017-May-25 00:00N 50°12' W 018°28'1 0.4 1012.9 12.8
2017-May-24 21:00N 50°11' W 018°29'2 0.6 1013.9 12.8
2017-May-24 18:00N 50°09' W 018°29'2 0.8 1014.6 12.8
2017-May-24 15:00N 50°07' W 018°28'1 0.3 1016.2 12.7
2017-May-24 13:00N 50°06' W 018°28'1 0.7 1016.3 12.7
2017-May-24 12:00N 50°05' W 018°29'1 0.4 1016.7 12.7
2017-May-24 10:00N 50°05' W 018°29'1 0.6 1017.8 12.6
2017-May-24 09:00N 50°04' W 018°29'1 0.4 1017.6 12.6
2017-May-24 06:00N 50°03' W 018°30'0 0.0 1017.5 12.6
2017-May-24 05:00N 50°03' W 018°30'1 0.6 1017.2 12.6
2017-May-24 04:00N 50°02' W 018°30'1 0.7 1017.2 12.6
2017-May-24 03:00N 50°02' W 018°31'1 0.2 1017.2 12.6
2017-May-24 00:00N 50°01' W 018°31'0 0.0 1018.1 12.6
2017-May-23 23:00N 50°01' W 018°31'0 0.4 1018.5 12.6
2017-May-23 22:00N 50°01' W 018°32'0 0.4 1018.4 12.6
2017-May-23 21:00N 50°01' W 018°32'1 0.5 1018.1 12.6
2017-May-23 18:00N 50°00' W 018°34'0 0.0 1018.1 12.6
2017-May-23 17:00N 50°00' W 018°34'1 0.6 1018.1 12.6
2017-May-23 16:00N 49°59' W 018°34'0 0.0 1018.1 12.6
2017-May-23 15:00N 49°59' W 018°34'0 0.0 1018.3 12.6
2017-May-23 14:00N 49°59' W 018°34'0 0.4 1018.2 12.6
2017-May-23 13:00N 49°59' W 018°34'0 0.0 1018.2 12.5
2017-May-23 12:00N 49°59' W 018°34'1 0.7 1018.1 12.5
2017-May-23 11:00N 50°00' W 018°35'0 0.4 1018.3 12.5
2017-May-23 10:00N 50°00' W 018°35'0 0.4 1018.0 12.5
2017-May-23 09:00N 50°00' W 018°36'0 0.4 1017.6 12.5
2017-May-23 08:00N 50°00' W 018°37'0 0.4 1017.4 12.4
2017-May-23 07:00N 50°00' W 018°37'1 0.7 1016.8 12.4
2017-May-23 06:00N 49°59' W 018°38'0 0.0 1016.3 12.4
2017-May-23 05:00N 49°59' W 018°38'0 0.4 1016.0 12.4
2017-May-23 04:00N 49°59' W 018°38'0 0.0 1015.7 12.4
2017-May-23 03:00N 49°59' W 018°38'1 0.6 1015.5 12.4
2017-May-23 02:00N 49°59' W 018°38'0 0.0 1015.5 12.4
2017-May-23 01:00N 49°59' W 018°38'1 0.6 1015.4 12.4
2017-May-23 00:00N 49°59' W 018°38'0 0.0 1015.0 12.4
2017-May-22 23:00N 49°59' W 018°38'0 0.4 1014.8 12.4
2017-May-22 22:00N 49°59' W 018°39'1 0.7 1014.5 12.4
2017-May-22 21:00N 50°00' W 018°40'0 0.4 1013.8 12.4
2017-May-22 20:00N 50°00' W 018°40'0 0.4 1013.2 12.4
2017-May-22 19:00N 50°00' W 018°41'0 0.4 1012.4 12.4
2017-May-22 18:00N 50°00' W 018°41'0 0.1 1011.7 12.4
2017-May-22 15:00N 50°00' W 018°42'0 0.1 1009.9 12.4
2017-May-22 12:00N 50°00' W 018°43'0 0.0 1008.1 12.4
2017-May-22 10:00N 50°00' W 018°43'0 0.4 1008.0 12.3
2017-May-22 09:00N 50°00' W 018°43'1 0.2 1007.7 12.3
2017-May-22 06:00N 50°01' W 018°44'1 0.3 1006.9 12.3
2017-May-22 03:00N 50°01' W 018°45'0 0.0 1006.1 12.3
2017-May-22 02:00N 50°01' W 018°45'0 0.4 1006.2 12.3
2017-May-22 01:00N 50°01' W 018°46'0 0.0 1006.4 12.3
2017-May-22 00:00N 50°01' W 018°46'0 0.4 1006.2 12.3
2017-May-21 23:00N 50°01' W 018°46'0 0.2 1005.9 12.3
2017-May-21 21:00N 50°01' W 018°47'0 0.0 1004.4 12.3
2017-May-21 20:00N 50°01' W 018°47'0 0.0 1003.6 12.3
2017-May-21 19:00N 50°01' W 018°47'1 0.7 1002.7 12.3
2017-May-21 18:00N 50°01' W 018°47'0 0.0 1001.9 12.3
2017-May-21 17:00N 50°01' W 018°47'1 0.7 1001.1 12.3
2017-May-21 16:00N 50°02' W 018°48'0 0.4 999.9 12.3
2017-May-21 15:00N 50°02' W 018°49'0 0.0 999.2 12.3
2017-May-21 14:00N 50°02' W 018°49'0 0.4 998.9 12.3
2017-May-21 13:00N 50°02' W 018°49'1 1.0 998.8 12.3
2017-May-21 12:00N 50°02' W 018°50'1 1.2 998.8 12.3
2017-May-21 11:00N 50°02' W 018°52'0 0.0 998.8 12.3
2017-May-21 10:00N 50°02' W 018°52'0 0.4 998.7 12.2
2017-May-21 09:00N 50°02' W 018°53'0 0.4 998.8 12.2
2017-May-21 08:00N 50°02' W 018°53'1 0.7 998.5 12.2
2017-May-21 07:00N 50°02' W 018°54'0 0.0 998.1 12.2
2017-May-21 06:00N 50°02' W 018°54'0 0.4 997.2 12.2
2017-May-21 05:00N 50°02' W 018°55'0 0.0 998.2 12.2
2017-May-21 04:00N 50°02' W 018°55'0 0.4 999.8 12.1
2017-May-21 03:00N 50°02' W 018°55'0 0.4 1001.4 12.1
2017-May-21 02:00N 50°02' W 018°56'1 0.8 1003.0 12.2
2017-May-21 01:00N 50°02' W 018°57'0 0.4 1004.4 12.2
2017-May-21 00:00N 50°02' W 018°58'0 0.4 1005.8 12.3
2017-May-20 23:00N 50°02' W 018°58'0 0.0 1007.0 12.3
2017-May-20 22:00N 50°02' W 018°58'1 0.7 1008.0 12.3
2017-May-20 21:00N 50°01' W 018°59'0 0.0 1008.6 12.3
2017-May-20 20:00N 50°01' W 018°59'1 0.4 1009.3 12.3
2017-May-20 18:00N 50°02' W 018°59'1 0.7 1011.0 12.3
2017-May-20 17:00N 50°02' W 019°00'0 0.4 1011.8 12.4
2017-May-20 16:00N 50°02' W 019°01'0 0.4 1012.5 12.4
2017-May-20 15:00N 50°02' W 019°01'0 0.4 1013.2 12.4
2017-May-20 14:00N 50°02' W 019°02'0 0.4 1013.9 12.3
2017-May-20 13:00N 50°02' W 019°02'0 0.0 1014.2 12.4
2017-May-20 12:00N 50°02' W 019°02'0 0.4 1014.6 12.3
2017-May-20 11:00N 50°02' W 019°03'1 0.6 1015.0 12.2
2017-May-20 10:00N 50°02' W 019°03'   1015.1 12.2

Dump ship's entire track history